Time;durP1;ratioP1;P1;durP2;ratioP2;P2;SDS_P1;SDS_P2;PMS_P1;PMS_P2;Temp;Humidity;BMP_temperature;BMP_pressure;BME280_temperature;BME280_humidity;BME280_pressure;Samples;Min_cycle;Max_cycle;Signal;HPM_P1;HPM_P2
2022/05/12 00:02:16;;;;;;;;;1.25;1.25;;;;;;;;5103080;27;61975;-79
2022/05/12 00:04:42;;;;;;;;;1.00;1.00;;;;;;;;5103797;27;62061;-79
2022/05/12 00:07:07;;;;;;;;;1.00;1.00;;;;;;;;5103724;27;61984;-79
2022/05/12 00:09:33;;;;;;;;;2.50;0.75;;;;;;;;5083978;27;64191;-79
2022/05/12 00:11:58;;;;;;;;;0.75;0.75;;;;;;;;5103679;27;62367;-79
2022/05/12 00:14:24;;;;;;;;;2.00;0.00;;;;;;;;5103203;27;61991;-79
2022/05/12 00:16:50;;;;;;;;;1.25;1.25;;;;;;;;5103685;27;61795;-79
2022/05/12 00:19:15;;;;;;;;;2.25;1.00;;;;;;;;5102501;27;62038;-79
2022/05/12 00:21:40;;;;;;;;;3.25;1.75;;;;;;;;5102849;27;62002;-78
2022/05/12 00:24:06;;;;;;;;;3.25;1.50;;;;;;;;5103624;27;62147;-79
2022/05/12 00:26:32;;;;;;;;;1.75;0.50;;;;;;;;5085070;27;61895;-78
2022/05/12 00:28:59;;;;;;;;;1.50;1.50;;;;;;;;5102617;27;63087;-79
2022/05/12 00:31:25;;;;;;;;;3.00;1.75;;;;;;;;5103039;27;61760;-79
2022/05/12 00:33:52;;;;;;;;;2.00;2.00;;;;;;;;5103009;27;62011;-79
2022/05/12 00:36:17;;;;;;;;;1.50;1.50;;;;;;;;5103472;27;61701;-79
2022/05/12 00:38:43;;;;;;;;;1.75;1.75;;;;;;;;5102008;27;62700;-79
2022/05/12 00:41:08;;;;;;;;;3.75;2.00;;;;;;;;5103077;27;61899;-79
2022/05/12 00:43:33;;;;;;;;;2.00;2.00;;;;;;;;5102583;27;61855;-79
2022/05/12 00:45:59;;;;;;;;;3.00;1.75;;;;;;;;5084822;27;61803;-79
2022/05/12 00:48:24;;;;;;;;;1.00;1.00;;;;;;;;5101794;27;61920;-79
2022/05/12 00:50:50;;;;;;;;;3.00;1.00;;;;;;;;5103143;27;61747;-79
2022/05/12 00:53:16;;;;;;;;;2.00;2.00;;;;;;;;5084795;27;62183;-79
2022/05/12 00:55:43;;;;;;;;;3.00;2.00;;;;;;;;5084434;27;61921;-79
2022/05/12 00:58:10;;;;;;;;;1.00;1.00;;;;;;;;5102095;27;62037;-79
2022/05/12 01:00:36;;;;;;;;;2.75;1.00;;;;;;;;5102806;27;62079;-79
2022/05/12 01:03:03;;;;;;;;;0.50;0.50;;;;;;;;5084238;27;61880;-79
2022/05/12 01:05:29;;;;;;;;;2.00;2.00;;;;;;;;5084509;27;62073;-79
2022/05/12 01:07:55;;;;;;;;;3.25;1.00;;;;;;;;5101938;27;62748;-78
2022/05/12 01:10:21;;;;;;;;;1.00;1.00;;;;;;;;5084171;27;61982;-79
2022/05/12 01:12:48;;;;;;;;;4.50;4.00;;;;;;;;5103276;27;61810;-79
2022/05/12 01:15:14;;;;;;;;;1.00;1.00;;;;;;;;5088117;27;62055;-79
2022/05/12 01:17:40;;;;;;;;;4.50;3.00;;;;;;;;5086911;27;64895;-79
2022/05/12 01:20:06;;;;;;;;;1.75;1.75;;;;;;;;5106359;27;61740;-79
2022/05/12 01:22:34;;;;;;;;;1.50;1.00;;;;;;;;5106095;27;61837;-79
2022/05/12 01:25:00;;;;;;;;;4.75;2.75;;;;;;;;5106398;27;61740;-79
2022/05/12 01:27:29;;;;;;;;;2.75;1.75;;;;;;;;5087065;27;63736;-78
2022/05/12 01:29:56;;;;;;;;;2.00;1.00;;;;;;;;5106303;27;62002;-79
2022/05/12 01:32:23;;;;;;;;;4.50;2.50;;;;;;;;5105897;27;61841;-79
2022/05/12 01:34:49;;;;;;;;;2.00;2.00;;;;;;;;5105786;27;61927;-79
2022/05/12 01:37:14;;;;;;;;;1.25;1.25;;;;;;;;5087035;27;63990;-79
2022/05/12 01:39:40;;;;;;;;;4.00;2.25;;;;;;;;5087145;27;61834;-79
2022/05/12 01:42:06;;;;;;;;;1.75;1.75;;;;;;;;5105733;27;61823;-79
2022/05/12 01:44:32;;;;;;;;;1.25;1.00;;;;;;;;5105864;27;61864;-79
2022/05/12 01:46:57;;;;;;;;;2.50;1.00;;;;;;;;5105082;27;61772;-79
2022/05/12 01:49:23;;;;;;;;;6.25;3.00;;;;;;;;5104841;27;61991;-79
2022/05/12 01:51:51;;;;;;;;;2.00;2.00;;;;;;;;5104644;27;61688;-79
2022/05/12 01:54:17;;;;;;;;;3.50;2.00;;;;;;;;5104745;27;61916;-79
2022/05/12 01:56:42;;;;;;;;;1.00;1.00;;;;;;;;5103915;27;62178;-78
2022/05/12 01:59:07;;;;;;;;;0.00;0.00;;;;;;;;5086312;27;62015;-79
2022/05/12 02:01:32;;;;;;;;;1.00;1.00;;;;;;;;5104685;27;61730;-79
2022/05/12 02:03:58;;;;;;;;;1.25;0.00;;;;;;;;5086239;27;61788;-79
2022/05/12 02:06:23;;;;;;;;;0.00;0.00;;;;;;;;5104010;27;61855;-79
2022/05/12 02:08:48;;;;;;;;;2.00;0.00;;;;;;;;5104116;27;62177;-79
2022/05/12 02:11:13;;;;;;;;;0.50;0.00;;;;;;;;5085934;27;61839;-79
2022/05/12 02:13:39;;;;;;;;;1.50;0.00;;;;;;;;5104710;27;61824;-79
2022/05/12 02:16:04;;;;;;;;;3.25;1.00;;;;;;;;5103903;27;62702;-79
2022/05/12 02:18:29;;;;;;;;;1.00;1.00;;;;;;;;5103947;27;61739;-79
2022/05/12 02:20:55;;;;;;;;;0.00;0.00;;;;;;;;5104007;27;61726;-79
2022/05/12 02:23:20;;;;;;;;;3.00;0.00;;;;;;;;5104189;27;61773;-79
2022/05/12 02:25:46;;;;;;;;;0.00;0.00;;;;;;;;5103259;27;62818;-79
2022/05/12 02:28:11;;;;;;;;;1.00;1.00;;;;;;;;5104018;27;61840;-79
2022/05/12 02:30:37;;;;;;;;;0.00;0.00;;;;;;;;5085919;27;61690;-79
2022/05/12 02:33:02;;;;;;;;;1.00;1.00;;;;;;;;5103818;27;62040;-79
2022/05/12 02:35:28;;;;;;;;;0.00;0.00;;;;;;;;5103423;27;62005;-79
2022/05/12 02:37:53;;;;;;;;;3.00;0.00;;;;;;;;5103587;27;61678;-78
2022/05/12 02:40:20;;;;;;;;;2.00;1.00;;;;;;;;5103877;27;61697;-79
2022/05/12 02:42:46;;;;;;;;;2.00;1.00;;;;;;;;5085611;27;61806;-79
2022/05/12 02:45:11;;;;;;;;;1.00;1.00;;;;;;;;5103139;27;63146;-79
2022/05/12 02:47:37;;;;;;;;;0.33;0.33;;;;;;;;5053286;27;1411424;-79
2022/05/12 02:50:03;;;;;;;;;1.75;1.00;;;;;;;;5104851;27;62050;-79
2022/05/12 02:52:28;;;;;;;;;1.75;0.25;;;;;;;;5105050;27;61808;-79
2022/05/12 02:54:53;;;;;;;;;0.75;0.75;;;;;;;;5103937;27;61945;-79
2022/05/12 02:57:19;;;;;;;;;3.00;1.50;;;;;;;;5104729;27;62057;-79
2022/05/12 02:59:44;;;;;;;;;2.00;0.75;;;;;;;;5086339;27;61870;-79
2022/05/12 03:02:09;;;;;;;;;0.00;0.00;;;;;;;;5104629;27;61804;-79
2022/05/12 03:04:35;;;;;;;;;0.50;0.00;;;;;;;;5085473;27;64040;-79
2022/05/12 03:07:00;;;;;;;;;0.00;0.00;;;;;;;;5104463;27;61742;-79
2022/05/12 03:09:26;;;;;;;;;2.00;0.25;;;;;;;;5104219;27;61776;-79
2022/05/12 03:11:51;;;;;;;;;1.00;1.00;;;;;;;;5104770;27;61911;-79
2022/05/12 03:14:16;;;;;;;;;1.00;1.00;;;;;;;;5103808;27;62061;-79
2022/05/12 03:16:42;;;;;;;;;0.50;0.00;;;;;;;;5104561;27;62003;-79
2022/05/12 03:19:07;;;;;;;;;1.00;1.00;;;;;;;;5085623;27;61839;-79
2022/05/12 03:21:33;;;;;;;;;2.00;1.00;;;;;;;;5104295;27;61734;-79
2022/05/12 03:23:58;;;;;;;;;1.00;1.00;;;;;;;;5103555;27;62763;-78
2022/05/12 03:26:23;;;;;;;;;1.00;1.00;;;;;;;;5104275;27;61707;-79
2022/05/12 03:28:49;;;;;;;;;0.50;0.50;;;;;;;;5104345;27;62323;-79
2022/05/12 03:31:14;;;;;;;;;0.75;0.00;;;;;;;;5104315;27;61821;-79
2022/05/12 03:33:39;;;;;;;;;3.25;0.50;;;;;;;;5084921;27;64882;-79
2022/05/12 03:36:05;;;;;;;;;1.50;0.00;;;;;;;;5103170;27;61940;-79
2022/05/12 03:38:31;;;;;;;;;0.00;0.00;;;;;;;;5085007;27;61928;-78
2022/05/12 03:40:56;;;;;;;;;2.00;1.75;;;;;;;;5085628;27;61812;-79
2022/05/12 03:46:06;;;;;;;;;0.00;0.00;;;;;;;;5103948;27;61809;-79
2022/05/12 03:48:31;;;;;;;;;2.00;0.50;;;;;;;;5103862;27;61983;-79
2022/05/12 03:50:57;;;;;;;;;2.00;0.75;;;;;;;;5104154;27;62095;-79
2022/05/12 03:53:24;;;;;;;;;1.50;0.25;;;;;;;;5102971;27;61972;-78
2022/05/12 03:55:49;;;;;;;;;0.00;0.00;;;;;;;;5103916;27;61773;-79
2022/05/12 03:58:14;;;;;;;;;0.25;0.25;;;;;;;;5103636;27;61801;-78
2022/05/12 04:00:40;;;;;;;;;0.00;0.00;;;;;;;;5104139;27;61988;-79
2022/05/12 04:03:05;;;;;;;;;1.00;1.00;;;;;;;;5102947;27;61836;-78
2022/05/12 04:05:31;;;;;;;;;2.00;1.00;;;;;;;;5103556;27;61900;-79
2022/05/12 04:07:57;;;;;;;;;1.00;1.00;;;;;;;;5103359;27;61784;-78
2022/05/12 04:10:23;;;;;;;;;2.00;0.50;;;;;;;;5103608;27;62043;-79
2022/05/12 04:12:48;;;;;;;;;2.00;0.00;;;;;;;;5103136;27;61717;-79
2022/05/12 04:15:15;;;;;;;;;0.00;0.00;;;;;;;;5084923;27;61846;-78
2022/05/12 04:17:41;;;;;;;;;2.75;1.00;;;;;;;;5103484;27;61632;-79
2022/05/12 04:20:09;;;;;;;;;5.50;1.00;;;;;;;;5103603;27;61733;-79
2022/05/12 04:22:35;;;;;;;;;2.25;1.00;;;;;;;;5102289;27;62638;-79
2022/05/12 04:25:00;;;;;;;;;0.25;0.25;;;;;;;;5103274;27;61772;-79
2022/05/12 04:27:25;;;;;;;;;2.50;1.00;;;;;;;;5084809;27;61757;-78
2022/05/12 04:29:51;;;;;;;;;1.50;0.25;;;;;;;;5103553;27;61882;-79
2022/05/12 04:32:16;;;;;;;;;1.00;1.00;;;;;;;;5102338;27;62188;-79
2022/05/12 04:37:28;;;;;;;;;1.50;1.00;;;;;;;;5103000;27;61774;-79
2022/05/12 04:39:53;;;;;;;;;0.50;0.50;;;;;;;;5103254;27;61875;-79
2022/05/12 04:42:18;;;;;;;;;2.00;0.50;;;;;;;;5102444;27;62861;-79
2022/05/12 04:44:44;;;;;;;;;2.75;1.00;;;;;;;;5084510;27;61803;-79
2022/05/12 04:47:09;;;;;;;;;1.25;1.00;;;;;;;;5084320;27;61683;-78
2022/05/12 04:49:34;;;;;;;;;1.00;1.00;;;;;;;;5102514;27;61796;-78
2022/05/12 04:52:01;;;;;;;;;2.75;1.25;;;;;;;;5083874;27;64946;-79
2022/05/12 04:54:27;;;;;;;;;3.50;0.25;;;;;;;;5084416;27;62278;-79
2022/05/12 04:56:52;;;;;;;;;1.00;0.25;;;;;;;;5084475;27;62107;-79
2022/05/12 04:59:18;;;;;;;;;2.00;1.00;;;;;;;;5103164;27;61960;-79
2022/05/12 05:01:43;;;;;;;;;1.00;1.00;;;;;;;;5101573;27;61819;-79
2022/05/12 05:04:08;;;;;;;;;1.00;1.00;;;;;;;;5084273;27;61939;-80
2022/05/12 05:06:33;;;;;;;;;1.00;1.00;;;;;;;;5102691;27;62078;-80
2022/05/12 05:08:59;;;;;;;;;1.25;1.25;;;;;;;;5084237;27;62201;-81
2022/05/12 05:11:25;;;;;;;;;2.00;0.50;;;;;;;;5101987;27;61721;-81
2022/05/12 05:13:50;;;;;;;;;1.00;1.00;;;;;;;;5102955;27;61796;-82
2022/05/12 05:16:16;;;;;;;;;0.75;0.75;;;;;;;;5102808;27;62099;-82
2022/05/12 05:18:42;;;;;;;;;4.75;2.00;;;;;;;;5101888;27;61961;-82
2022/05/12 05:21:09;;;;;;;;;1.75;1.00;;;;;;;;5101077;27;61941;-81
2022/05/12 05:23:35;;;;;;;;;0.75;0.75;;;;;;;;5084000;27;61721;-81
2022/05/12 05:26:01;;;;;;;;;2.00;1.75;;;;;;;;5102627;27;61632;-80
2022/05/12 05:28:26;;;;;;;;;1.00;1.00;;;;;;;;5102771;27;62154;-85
2022/05/12 05:30:54;;;;;;;;;2.25;1.00;;;;;;;;5102228;27;61588;-85
2022/05/12 05:33:20;;;;;;;;;1.00;1.00;;;;;;;;5083781;27;61914;-86
2022/05/12 05:35:46;;;;;;;;;1.75;1.75;;;;;;;;5101009;27;61908;-82
2022/05/12 05:38:12;;;;;;;;;1.00;1.00;;;;;;;;5098408;27;61913;-83
2022/05/12 05:40:37;;;;;;;;;2.25;1.25;;;;;;;;5099882;27;62254;-83
2022/05/12 05:43:02;;;;;;;;;2.00;1.00;;;;;;;;5098967;27;62074;-83
2022/05/12 05:45:28;;;;;;;;;2.50;1.00;;;;;;;;5101002;27;61995;-84
2022/05/12 05:47:57;;;;;;;;;2.00;0.50;;;;;;;;5099291;27;62090;-83
2022/05/12 05:50:24;;;;;;;;;2.25;1.00;;;;;;;;5081282;27;63943;-83
2022/05/12 05:55:34;;;;;;;;;3.00;1.75;;;;;;;;5104458;27;62200;-82
2022/05/12 05:58:00;;;;;;;;;1.00;1.00;;;;;;;;5082253;27;62107;-83
2022/05/12 06:00:25;;;;;;;;;3.75;1.00;;;;;;;;5100966;27;61838;-82
2022/05/12 06:02:51;;;;;;;;;3.25;2.75;;;;;;;;5103998;27;61904;-84
2022/05/12 06:05:17;;;;;;;;;6.75;2.75;;;;;;;;5104702;27;61892;-83
2022/05/12 06:07:43;;;;;;;;;1.00;1.00;;;;;;;;5104745;27;62012;-82
2022/05/12 06:10:08;;;;;;;;;1.50;0.75;;;;;;;;5085471;27;63705;-83
2022/05/12 06:12:34;;;;;;;;;3.00;2.00;;;;;;;;5104431;27;61837;-83
2022/05/12 06:14:59;;;;;;;;;1.50;1.50;;;;;;;;5104610;27;61690;-84
2022/05/12 06:17:26;;;;;;;;;3.75;1.50;;;;;;;;5104216;27;61855;-81
2022/05/12 06:19:51;;;;;;;;;0.25;0.25;;;;;;;;5103380;27;61837;-82
2022/05/12 06:22:19;;;;;;;;;0.00;0.00;;;;;;;;5068758;27;62521;-81
2022/05/12 06:24:44;;;;;;;;;0.00;0.00;;;;;;;;5104252;27;61906;-82
2022/05/12 06:27:10;;;;;;;;;1.75;1.75;;;;;;;;5104724;27;61918;-84
2022/05/12 06:29:36;;;;;;;;;1.00;1.00;;;;;;;;5103718;27;62656;-83
2022/05/12 06:32:01;;;;;;;;;1.00;1.00;;;;;;;;5083098;27;61846;-84
2022/05/12 06:34:27;;;;;;;;;3.50;2.00;;;;;;;;5104238;27;61959;-84
2022/05/12 06:36:54;;;;;;;;;2.75;2.00;;;;;;;;5105116;27;61804;-79
2022/05/12 06:39:19;;;;;;;;;1.50;1.50;;;;;;;;5104074;27;61727;-79
2022/05/12 06:41:44;;;;;;;;;1.50;1.50;;;;;;;;5104709;27;61873;-79
2022/05/12 06:44:10;;;;;;;;;1.25;0.75;;;;;;;;5104933;27;61858;-79
2022/05/12 06:46:37;;;;;;;;;2.75;1.25;;;;;;;;5104981;27;61912;-80
2022/05/12 06:49:03;;;;;;;;;1.00;0.75;;;;;;;;5103393;27;61874;-80
2022/05/12 06:51:29;;;;;;;;;2.75;1.00;;;;;;;;5085427;27;62043;-78
2022/05/12 06:53:55;;;;;;;;;2.00;2.00;;;;;;;;5103811;27;61805;-79
2022/05/12 06:56:20;;;;;;;;;3.00;2.00;;;;;;;;5104241;27;61802;-83
2022/05/12 06:58:46;;;;;;;;;2.00;2.00;;;;;;;;5082972;27;64925;-83
2022/05/12 07:01:11;;;;;;;;;1.25;1.25;;;;;;;;5102584;27;61866;-83
2022/05/12 07:03:37;;;;;;;;;3.00;2.00;;;;;;;;5083864;27;62209;-80
2022/05/12 07:06:03;;;;;;;;;3.75;2.00;;;;;;;;5083921;27;61793;-79
2022/05/12 07:08:28;;;;;;;;;2.25;2.25;;;;;;;;5083079;27;61730;-79
2022/05/12 07:10:54;;;;;;;;;1.00;1.00;;;;;;;;5082550;27;61751;-79
2022/05/12 07:13:20;;;;;;;;;1.00;1.00;;;;;;;;5085095;27;61754;-82
2022/05/12 07:15:47;;;;;;;;;0.50;0.50;;;;;;;;5097035;27;62098;-82
2022/05/12 07:18:17;;;;;;;;;1.50;1.00;;;;;;;;5079481;27;64148;-81
2022/05/12 07:28:57;;;;;;;;;3.50;1.00;;;;;;;;5080016;27;61961;-81
2022/05/12 07:31:23;;;;;;;;;3.00;1.00;;;;;;;;5082526;27;61873;-79
2022/05/12 07:33:49;;;;;;;;;3.25;1.25;;;;;;;;5101378;27;61887;-79
2022/05/12 07:36:19;;;;;;;;;3.75;1.75;;;;;;;;5082320;27;62289;-80
2022/05/12 07:38:45;;;;;;;;;2.00;0.00;;;;;;;;5082263;27;64499;-80
2022/05/12 07:41:12;;;;;;;;;0.75;0.75;;;;;;;;5082963;27;62269;-82
2022/05/12 07:43:40;;;;;;;;;0.00;0.00;;;;;;;;5083159;27;61991;-81
2022/05/12 07:46:06;;;;;;;;;1.00;0.75;;;;;;;;5099799;27;61941;-80
2022/05/12 07:48:38;;;;;;;;;2.00;1.00;;;;;;;;5101447;27;61769;-79
2022/05/12 07:51:04;;;;;;;;;0.50;0.50;;;;;;;;5082457;27;61916;-80
2022/05/12 07:53:29;;;;;;;;;1.50;0.75;;;;;;;;5083178;27;61688;-79
2022/05/12 07:55:55;;;;;;;;;1.25;1.25;;;;;;;;5102082;27;62238;-82
2022/05/12 07:58:20;;;;;;;;;1.00;0.00;;;;;;;;5101382;27;61909;-82
2022/05/12 08:00:47;;;;;;;;;0.50;0.00;;;;;;;;5117937;27;61901;-81
2022/05/12 08:03:16;;;;;;;;;1.00;0.75;;;;;;;;5101883;27;61868;-82
2022/05/12 08:05:42;;;;;;;;;1.00;0.00;;;;;;;;5084609;27;62055;-79
2022/05/12 08:08:08;;;;;;;;;1.00;1.00;;;;;;;;5100384;27;61865;-80
2022/05/12 08:10:34;;;;;;;;;0.50;0.00;;;;;;;;5082817;27;61754;-81
2022/05/12 08:12:59;;;;;;;;;0.00;0.00;;;;;;;;5101033;27;61809;-80
2022/05/12 08:15:25;;;;;;;;;2.50;0.25;;;;;;;;5101673;27;62327;-78
2022/05/12 08:17:56;;;;;;;;;1.00;1.00;;;;;;;;5081691;27;63314;-78
2022/05/12 08:20:22;;;;;;;;;0.75;0.75;;;;;;;;5080966;27;62160;-84
2022/05/12 08:22:47;;;;;;;;;0.00;0.00;;;;;;;;5101440;27;61971;-80
2022/05/12 08:25:13;;;;;;;;;0.00;0.00;;;;;;;;5083567;27;62463;-80
2022/05/12 08:27:39;;;;;;;;;0.50;0.50;;;;;;;;5081486;27;62766;-81
2022/05/12 08:30:06;;;;;;;;;1.75;0.00;;;;;;;;5101974;27;61726;-81
2022/05/12 08:32:31;;;;;;;;;0.50;0.00;;;;;;;;5082694;27;61814;-82
2022/05/12 08:34:57;;;;;;;;;0.00;0.00;;;;;;;;5101551;27;61924;-83
2022/05/12 08:37:25;;;;;;;;;0.00;0.00;;;;;;;;5081898;27;63411;-80
2022/05/12 08:39:51;;;;;;;;;0.00;0.00;;;;;;;;5101539;27;61838;-85
2022/05/12 08:42:26;;;;;;;;;0.00;0.00;;;;;;;;5083045;27;61782;-81
2022/05/12 08:44:52;;;;;;;;;1.50;0.00;;;;;;;;5083644;27;61909;-82
2022/05/12 08:47:23;;;;;;;;;0.75;0.75;;;;;;;;5100282;27;62277;-82
2022/05/12 08:49:52;;;;;;;;;3.25;1.00;;;;;;;;5101084;27;62014;-81
2022/05/12 08:52:24;;;;;;;;;1.00;1.00;;;;;;;;5082814;27;61958;-82
2022/05/12 08:55:00;;;;;;;;;0.00;0.00;;;;;;;;5116581;27;61951;-81
2022/05/12 08:57:32;;;;;;;;;1.00;1.00;;;;;;;;5082227;27;64614;-83
2022/05/12 08:59:58;;;;;;;;;1.00;1.00;;;;;;;;5082673;27;62145;-82
2022/05/12 09:02:27;;;;;;;;;1.25;1.25;;;;;;;;5082740;27;61913;-83
2022/05/12 09:05:00;;;;;;;;;1.00;1.00;;;;;;;;5082874;27;62043;-84
2022/05/12 09:07:28;;;;;;;;;1.00;1.00;;;;;;;;5100931;27;61960;-81
2022/05/12 09:09:56;;;;;;;;;1.00;1.00;;;;;;;;5101096;27;61878;-82
2022/05/12 09:12:42;;;;;;;;;0.75;0.75;;;;;;;;5100594;27;61884;-82
2022/05/12 09:15:12;;;;;;;;;2.00;0.00;;;;;;;;5100696;27;62212;-81
2022/05/12 09:17:42;;;;;;;;;1.25;1.00;;;;;;;;5099778;27;62032;-81
2022/05/12 09:20:09;;;;;;;;;1.00;0.00;;;;;;;;5082613;27;61718;-84
2022/05/12 09:22:35;;;;;;;;;0.00;0.00;;;;;;;;5101016;27;61804;-80
2022/05/12 09:25:00;;;;;;;;;1.75;0.00;;;;;;;;5101160;27;62324;-79
2022/05/12 09:27:32;;;;;;;;;1.00;1.00;;;;;;;;5099644;27;61826;-83
2022/05/12 09:29:58;;;;;;;;;1.00;0.00;;;;;;;;5082196;27;62074;-84
2022/05/12 09:32:27;;;;;;;;;0.00;0.00;;;;;;;;5100092;27;61932;-81
2022/05/12 09:35:05;;;;;;;;;0.00;0.00;;;;;;;;5103153;27;62248;-81
2022/05/12 09:37:32;;;;;;;;;0.75;0.75;;;;;;;;5101801;27;62700;-83
2022/05/12 09:40:17;;;;;;;;;2.00;1.00;;;;;;;;5103577;27;62024;-83
2022/05/12 09:42:44;;;;;;;;;1.25;0.00;;;;;;;;5084637;27;61808;-82
2022/05/12 09:45:16;;;;;;;;;0.00;0.00;;;;;;;;5104697;27;61997;-82
2022/05/12 09:47:41;;;;;;;;;0.25;0.25;;;;;;;;5084930;27;63901;-80
2022/05/12 09:50:18;;;;;;;;;2.00;0.50;;;;;;;;5085918;27;61937;-84
2022/05/12 09:53:07;;;;;;;;;1.00;1.00;;;;;;;;5085432;27;62154;-86
2022/05/12 09:55:36;;;;;;;;;1.00;1.00;;;;;;;;5090900;27;61944;-81
2022/05/12 09:58:05;;;;;;;;;2.00;1.00;;;;;;;;5100955;27;61897;-78
2022/05/12 10:00:32;;;;;;;;;1.25;0.25;;;;;;;;5085208;27;62166;-81
2022/05/12 10:08:40;;;;;;;;;1.00;0.00;;;;;;;;5100911;27;61972;-80
2022/05/12 10:11:08;;;;;;;;;1.00;0.25;;;;;;;;5103082;27;61678;-80
2022/05/12 10:13:50;;;;;;;;;0.75;0.75;;;;;;;;5101671;27;61687;-85
2022/05/12 10:16:18;;;;;;;;;1.00;1.00;;;;;;;;5100671;27;61966;-81
2022/05/12 10:18:45;;;;;;;;;1.00;0.25;;;;;;;;5103193;27;62006;-85
2022/05/12 10:21:21;;;;;;;;;0.50;0.25;;;;;;;;5106164;27;62815;-83
2022/05/12 10:24:05;;;;;;;;;0.00;0.00;;;;;;;;5103799;27;61943;-84
2022/05/12 10:26:54;;;;;;;;;0.00;0.00;;;;;;;;5103481;27;62106;-86
2022/05/12 10:29:46;;;;;;;;;0.50;0.00;;;;;;;;5101783;27;61662;-85
2022/05/12 10:32:40;;;;;;;;;0.00;0.00;;;;;;;;5085148;27;62027;-85
2022/05/12 10:35:13;;;;;;;;;0.00;0.00;;;;;;;;5022554;28;62188;-85
2022/05/12 10:37:57;;;;;;;;;0.00;0.00;;;;;;;;5040160;28;61922;-85
2022/05/12 10:40:26;;;;;;;;;0.00;0.00;;;;;;;;5055885;28;64204;-85
2022/05/12 10:43:10;;;;;;;;;1.00;1.00;;;;;;;;5040241;28;61889;-85
2022/05/12 10:45:38;;;;;;;;;0.00;0.00;;;;;;;;5039123;28;61897;-84
2022/05/12 10:48:23;;;;;;;;;0.00;0.00;;;;;;;;5038647;28;62277;-80
2022/05/12 10:51:04;;;;;;;;;1.75;0.00;;;;;;;;5039398;28;61947;-80
2022/05/12 10:53:57;;;;;;;;;0.25;0.25;;;;;;;;5055983;28;61986;-80
2022/05/12 10:56:23;;;;;;;;;0.00;0.00;;;;;;;;5008544;28;62573;-86
2022/05/12 10:58:51;;;;;;;;;1.25;0.00;;;;;;;;5039368;28;62188;-90
2022/05/12 11:01:25;;;;;;;;;0.50;0.00;;;;;;;;5037889;28;62843;-85
2022/05/12 11:04:00;;;;;;;;;0.50;0.00;;;;;;;;5039058;28;61815;-86
2022/05/12 11:06:29;;;;;;;;;1.00;1.00;;;;;;;;5039010;28;62154;-86
2022/05/12 11:08:57;;;;;;;;;0.00;0.00;;;;;;;;5038215;28;62192;-88
2022/05/12 11:11:28;;;;;;;;;0.00;0.00;;;;;;;;5064723;27;62848;-87
2022/05/12 11:14:13;;;;;;;;;1.00;1.00;;;;;;;;5102000;27;61999;-86
2022/05/12 11:16:53;;;;;;;;;2.25;0.00;;;;;;;;5104724;27;61930;-88
2022/05/12 11:19:24;;;;;;;;;0.00;0.00;;;;;;;;5083518;27;62032;-87
2022/05/12 11:22:11;;;;;;;;;2.50;1.00;;;;;;;;5100311;27;61734;-87
2022/05/12 11:24:50;;;;;;;;;2.00;0.00;;;;;;;;5101479;27;61753;-88
2022/05/12 11:27:30;;;;;;;;;1.50;0.50;;;;;;;;5082521;27;61830;-86
2022/05/12 11:30:01;;;;;;;;;2.00;1.00;;;;;;;;5083223;27;62119;-87
2022/05/12 11:32:27;;;;;;;;;0.33;0.33;;;;;;;;5083540;27;63691;-91
2022/05/12 11:34:55;;;;;;;;;0.00;0.00;;;;;;;;5102400;27;62056;-88
2022/05/12 11:37:26;;;;;;;;;0.00;0.00;;;;;;;;5102090;27;61887;-90
2022/05/12 11:39:54;;;;;;;;;2.00;1.00;;;;;;;;5099956;27;61853;-89
2022/05/12 11:42:22;;;;;;;;;1.33;0.00;;;;;;;;5082998;27;63272;-89
2022/05/12 11:45:10;;;;;;;;;1.50;1.00;;;;;;;;5100695;27;61935;-88
2022/05/12 11:47:43;;;;;;;;;1.00;1.00;;;;;;;;5099969;27;62256;-88
2022/05/12 11:50:28;;;;;;;;;3.00;1.00;;;;;;;;5099488;27;61784;-87
2022/05/12 11:52:54;;;;;;;;;1.00;1.00;;;;;;;;5100410;27;62848;-88
2022/05/12 11:55:22;;;;;;;;;2.33;0.00;;;;;;;;5101540;27;62004;-89
2022/05/12 11:57:57;;;;;;;;;0.67;0.00;;;;;;;;5101099;27;62053;-88
2022/05/12 12:00:49;;;;;;;;;0.00;0.00;;;;;;;;5101743;27;61964;-89
2022/05/12 12:03:23;;;;;;;;;0.33;0.00;;;;;;;;5078743;27;64122;-88
2022/05/12 12:05:49;;;;;;;;;0.33;0.33;;;;;;;;5099201;27;62046;-89
2022/05/12 12:08:32;;;;;;;;;2.00;0.00;;;;;;;;5099915;27;61781;-88
2022/05/12 12:11:12;;;;;;;;;0.00;0.00;;;;;;;;5101269;27;61823;-88
2022/05/12 12:13:38;;;;;;;;;0.67;0.67;;;;;;;;5099223;27;63240;-88
2022/05/12 12:16:12;;;;;;;;;0.00;0.00;;;;;;;;5082069;27;61968;-82
2022/05/12 12:18:38;;;;;;;;;1.00;0.00;;;;;;;;5101466;27;61939;-83
2022/05/12 12:21:22;;;;;;;;;2.00;1.00;;;;;;;;5101991;27;61971;-85
2022/05/12 12:23:59;;;;;;;;;1.67;0.67;;;;;;;;5101251;27;61876;-83
2022/05/12 12:26:32;;;;;;;;;1.00;0.00;;;;;;;;5101611;27;61793;-83
2022/05/12 12:28:59;;;;;;;;;0.00;0.00;;;;;;;;5083372;27;62233;-83
2022/05/12 12:31:37;;;;;;;;;0.00;0.00;;;;;;;;5101548;27;62132;-85
2022/05/12 12:34:03;;;;;;;;;0.00;0.00;;;;;;;;5100693;27;61781;-89
2022/05/12 12:36:28;;;;;;;;;0.00;0.00;;;;;;;;5083640;27;61786;-88
2022/05/12 12:38:53;;;;;;;;;0.33;0.00;;;;;;;;5101472;27;61832;-87
2022/05/12 12:41:29;;;;;;;;;2.00;0.67;;;;;;;;5083529;27;61823;-83
2022/05/12 12:44:00;;;;;;;;;1.00;1.00;;;;;;;;5082360;27;63728;-86
2022/05/12 12:46:29;;;;;;;;;0.00;0.00;;;;;;;;5096357;27;61972;-83
2022/05/12 12:48:59;;;;;;;;;0.00;0.00;;;;;;;;5098625;27;62020;-84
2022/05/12 12:51:34;;;;;;;;;1.00;0.00;;;;;;;;5101171;27;61726;-85
2022/05/12 12:56:47;;;;;;;;;1.00;1.00;;;;;;;;5100752;27;62065;-86
2022/05/12 12:59:14;;;;;;;;;1.00;0.00;;;;;;;;5082340;27;61969;-85
2022/05/12 13:01:46;;;;;;;;;0.00;0.00;;;;;;;;5082449;27;61867;-85
2022/05/12 13:04:12;;;;;;;;;0.00;0.00;;;;;;;;5099843;27;61904;-86
2022/05/12 13:06:37;;;;;;;;;0.00;0.00;;;;;;;;5100882;27;61844;-87
2022/05/12 13:09:05;;;;;;;;;0.67;0.00;;;;;;;;5085016;27;61839;-86
2022/05/12 13:11:31;;;;;;;;;0.00;0.00;;;;;;;;5104643;27;61818;-84
2022/05/12 13:13:56;;;;;;;;;0.33;0.33;;;;;;;;5084591;27;63566;-85
2022/05/12 13:16:24;;;;;;;;;0.00;0.00;;;;;;;;5085373;27;62071;-84
2022/05/12 13:18:51;;;;;;;;;1.00;0.00;;;;;;;;5086287;27;62002;-82
2022/05/12 13:21:36;;;;;;;;;1.00;1.00;;;;;;;;5103592;27;61804;-83
2022/05/12 13:24:05;;;;;;;;;1.00;1.00;;;;;;;;5103245;27;62963;-85
2022/05/12 13:26:31;;;;;;;;;0.00;0.00;;;;;;;;5085646;27;62071;-82
2022/05/12 13:28:56;;;;;;;;;1.00;1.00;;;;;;;;5104582;27;61964;-86
2022/05/12 13:31:23;;;;;;;;;0.00;0.00;;;;;;;;5103822;27;62035;-86
2022/05/12 13:34:07;;;;;;;;;0.67;0.67;;;;;;;;5084899;27;63381;-85
2022/05/12 13:36:41;;;;;;;;;1.00;0.00;;;;;;;;5103644;27;62034;-84
2022/05/12 13:39:07;;;;;;;;;0.00;0.00;;;;;;;;5103723;27;63221;-89
2022/05/12 13:41:38;;;;;;;;;1.33;0.00;;;;;;;;5085806;27;61973;-86
2022/05/12 13:44:09;;;;;;;;;0.00;0.00;;;;;;;;5085339;27;63651;-87
2022/05/12 13:46:36;;;;;;;;;0.00;0.00;;;;;;;;5103886;27;62132;-86
2022/05/12 13:49:06;;;;;;;;;0.00;0.00;;;;;;;;5103806;27;61851;-85
2022/05/12 13:51:50;;;;;;;;;0.00;0.00;;;;;;;;5085357;27;61878;-85
2022/05/12 13:54:29;;;;;;;;;1.67;0.00;;;;;;;;5084656;27;63822;-86
2022/05/12 13:57:13;;;;;;;;;1.00;0.00;;;;;;;;5104296;27;61749;-83
2022/05/12 13:59:38;;;;;;;;;0.00;0.00;;;;;;;;5084804;27;62194;-84
2022/05/12 14:02:17;;;;;;;;;0.00;0.00;;;;;;;;5103940;27;62233;-82
2022/05/12 14:04:43;;;;;;;;;0.33;0.00;;;;;;;;5103610;27;61782;-84
2022/05/12 14:07:09;;;;;;;;;0.00;0.00;;;;;;;;5103935;27;61705;-85
2022/05/12 14:09:35;;;;;;;;;0.00;0.00;;;;;;;;5103341;27;62105;-81
2022/05/12 14:12:04;;;;;;;;;0.00;0.00;;;;;;;;5104396;27;61743;-82
2022/05/12 14:20:19;;;;;;;;;0.00;0.00;;;;;;;;5103405;27;61824;-82
2022/05/12 14:22:44;;;;;;;;;0.00;0.00;;;;;;;;5104104;27;61639;-82
2022/05/12 14:25:10;;;;;;;;;1.00;0.00;;;;;;;;5102877;27;61909;-88
2022/05/12 14:27:36;;;;;;;;;0.00;0.00;;;;;;;;5103358;27;62088;-83
2022/05/12 14:30:02;;;;;;;;;0.00;0.00;;;;;;;;5103753;27;62144;-85
2022/05/12 14:32:34;;;;;;;;;0.00;0.00;;;;;;;;5103905;27;61804;-84
2022/05/12 14:34:59;;;;;;;;;0.00;0.00;;;;;;;;5102573;27;62823;-84
2022/05/12 14:37:24;;;;;;;;;0.00;0.00;;;;;;;;5103074;27;62080;-82
2022/05/12 14:39:50;;;;;;;;;0.00;0.00;;;;;;;;5102526;27;62255;-82
2022/05/12 14:42:15;;;;;;;;;0.00;0.00;;;;;;;;5084938;27;61825;-81
2022/05/12 14:44:40;;;;;;;;;0.33;0.00;;;;;;;;5102514;27;61745;-83
2022/05/12 14:47:08;;;;;;;;;0.00;0.00;;;;;;;;5103545;27;61800;-82
2022/05/12 14:49:37;;;;;;;;;0.00;0.00;;;;;;;;5084490;27;62045;-81
2022/05/12 14:52:03;;;;;;;;;0.67;0.00;;;;;;;;5103494;27;61733;-86
2022/05/12 14:54:29;;;;;;;;;0.00;0.00;;;;;;;;5102553;27;62862;-86
2022/05/12 14:56:56;;;;;;;;;0.67;0.00;;;;;;;;5103000;27;61931;-87
2022/05/12 14:59:22;;;;;;;;;0.00;0.00;;;;;;;;5102768;27;61853;-86
2022/05/12 15:01:47;;;;;;;;;0.67;0.00;;;;;;;;5085378;27;62158;-88
2022/05/12 15:04:13;;;;;;;;;0.00;0.00;;;;;;;;5083897;27;64971;-87
2022/05/12 15:06:39;;;;;;;;;0.00;0.00;;;;;;;;5085073;27;61810;-87
2022/05/12 15:09:05;;;;;;;;;0.67;0.00;;;;;;;;5083672;27;62157;-85
2022/05/12 15:11:31;;;;;;;;;0.00;0.00;;;;;;;;5099209;27;62174;-85
2022/05/12 15:13:57;;;;;;;;;1.33;0.00;;;;;;;;5082215;27;63862;-88
2022/05/12 15:16:22;;;;;;;;;0.00;0.00;;;;;;;;5101399;27;62093;-79
2022/05/12 15:18:48;;;;;;;;;0.00;0.00;;;;;;;;5100623;27;62135;-82
2022/05/12 15:21:13;;;;;;;;;1.33;0.00;;;;;;;;5101486;27;61980;-83